Ottignies, Belgium
Current Conditions -  °F | °C
As of 5:33 AM on Tuesday 21 Oct 2014 (Local Time) from EBBE Reporting Station
Broken Clouds Broken Clouds  
Wind Chill: 52°   Ceiling: 5000
Heat Index: 52°   Visibility: 6mi
Dew Point: 50°   Wind: 13mph
Humidity: 94%   Direction: 210°SSW
Pressure: 29.85"   Gusts: NA
Location:  50.67°N, 4.57°E
Report Text: EBBE 210333Z 21011KT 9999 FEW010 BKN050 11/10 Q1011 BLU BLU TEMPO GRN
Loading
Personal Weather Stations






























Interactive Weather Map
Tropical Storm Tracking
New forecast layout! Learn more

10-Day Weather Forecast

Advertisements
Track Severe Weather on mobile